createdAt,value
2022-11-14T00:01:40.943Z,6.25
2022-11-14T00:04:29.683Z,6.28
2022-11-14T00:07:16.663Z,6.31
2022-11-14T00:10:03.725Z,6.31
2022-11-14T00:12:50.231Z,6.34
2022-11-14T00:15:36.652Z,6.26
2022-11-14T00:18:23.719Z,6.18
2022-11-14T00:21:10.465Z,6.12
2022-11-14T00:23:57.040Z,6.04
2022-11-14T00:26:43.528Z,5.97
2022-11-14T00:29:30.100Z,5.92
2022-11-14T00:32:16.746Z,5.82
2022-11-14T00:35:02.975Z,5.69
2022-11-14T00:37:50.222Z,5.63
2022-11-14T00:40:36.557Z,5.58
2022-11-14T00:43:23.016Z,5.46
2022-11-14T00:46:09.392Z,5.35
2022-11-14T00:48:55.825Z,5.26
2022-11-14T00:51:42.610Z,5.25
2022-11-14T00:54:29.054Z,5.23
2022-11-14T00:57:15.711Z,5.23
2022-11-14T01:00:01.890Z,5.20
2022-11-14T01:02:48.615Z,5.17
2022-11-14T01:05:41.422Z,5.18
2022-11-14T01:08:28.488Z,5.12
2022-11-14T01:11:19.262Z,5.13
2022-11-14T01:14:09.275Z,5.12
2022-11-14T01:16:55.550Z,5.11
2022-11-14T01:19:43.407Z,5.12
2022-11-14T01:22:30.928Z,5.10
2022-11-14T01:25:17.421Z,5.10
2022-11-14T01:28:14.042Z,5.10
2022-11-14T01:31:16.345Z,5.11
2022-11-14T01:34:03.109Z,5.16
2022-11-14T01:36:49.359Z,5.20
2022-11-14T01:39:35.576Z,5.22
2022-11-14T01:42:26.896Z,5.29
2022-11-14T01:45:42.195Z,5.28
2022-11-14T01:48:45.390Z,5.28
2022-11-14T01:52:24.269Z,5.28
2022-11-14T01:55:11.022Z,5.25
2022-11-14T01:57:58.092Z,5.24
2022-11-14T02:00:44.961Z,5.25
2022-11-14T02:03:32.031Z,5.27
2022-11-14T02:06:21.263Z,5.29
2022-11-14T02:09:08.527Z,5.26
2022-11-14T02:11:58.638Z,5.26
2022-11-14T02:14:48.368Z,5.28
2022-11-14T02:17:35.181Z,5.32
2022-11-14T02:20:28.626Z,5.35
2022-11-14T02:23:17.327Z,5.38
2022-11-14T02:26:03.911Z,5.43
2022-11-14T02:28:50.517Z,5.45
2022-11-14T02:31:37.009Z,5.48
2022-11-14T02:34:23.703Z,5.49
2022-11-14T02:37:10.153Z,5.51
2022-11-14T02:39:56.484Z,5.53
2022-11-14T02:42:43.345Z,5.56
2022-11-14T02:45:30.151Z,5.58
2022-11-14T02:48:16.624Z,5.63
2022-11-14T02:51:03.083Z,5.68
2022-11-14T02:53:49.474Z,5.71
2022-11-14T02:56:36.182Z,5.72
2022-11-14T02:59:22.854Z,5.74
2022-11-14T03:02:09.634Z,5.75
2022-11-14T03:04:56.108Z,5.70
2022-11-14T03:07:42.462Z,5.64
2022-11-14T03:10:28.796Z,5.58
2022-11-14T03:13:15.456Z,5.56
2022-11-14T03:16:07.664Z,5.57
2022-11-14T03:18:53.860Z,5.62
2022-11-14T03:21:40.319Z,5.61
2022-11-14T03:24:27.128Z,5.51
2022-11-14T03:27:13.733Z,5.48
2022-11-14T03:30:00.449Z,5.44
2022-11-14T03:32:47.562Z,5.39
2022-11-14T03:35:34.062Z,5.28
2022-11-14T03:38:24.591Z,5.18
2022-11-14T03:41:10.959Z,5.12
2022-11-14T03:43:57.544Z,5.05
2022-11-14T03:46:44.213Z,5.05
2022-11-14T03:49:30.775Z,5.07
2022-11-14T03:52:17.633Z,5.04
2022-11-14T03:55:04.301Z,4.98
2022-11-14T03:57:50.705Z,4.91
2022-11-14T04:00:37.527Z,4.82
2022-11-14T04:03:25.204Z,4.77
2022-11-14T04:06:11.819Z,4.74
2022-11-14T04:08:58.388Z,4.69
2022-11-14T04:11:44.752Z,4.67
2022-11-14T04:14:31.196Z,4.70
2022-11-14T04:17:17.870Z,4.72
2022-11-14T04:20:05.199Z,4.69
2022-11-14T04:22:51.786Z,4.63
2022-11-14T04:25:38.188Z,4.54
2022-11-14T04:28:24.896Z,4.46
2022-11-14T04:31:11.267Z,4.44
2022-11-14T04:33:57.695Z,4.48
2022-11-14T04:36:44.691Z,4.58
2022-11-14T04:39:31.319Z,4.71
2022-11-14T04:42:17.816Z,4.84
2022-11-14T04:45:04.992Z,4.97
2022-11-14T04:47:52.031Z,5.07
2022-11-14T04:50:38.826Z,5.13
2022-11-14T04:53:25.053Z,5.18
2022-11-14T04:56:11.409Z,5.21
2022-11-14T04:58:57.969Z,5.24
2022-11-14T05:01:44.371Z,5.26
2022-11-14T05:04:34.874Z,5.30
2022-11-14T05:07:22.170Z,5.32
2022-11-14T05:10:10.116Z,5.36
2022-11-14T05:12:56.889Z,5.39
2022-11-14T05:15:43.559Z,5.41
2022-11-14T05:18:30.212Z,5.37
2022-11-14T05:21:17.258Z,5.33
2022-11-14T05:24:04.466Z,5.32
2022-11-14T05:26:50.796Z,5.29
2022-11-14T05:29:37.272Z,5.24
2022-11-14T05:32:24.607Z,5.20
2022-11-14T05:35:11.077Z,5.19
2022-11-14T05:37:59.939Z,5.20
2022-11-14T05:40:47.015Z,5.22
2022-11-14T05:43:34.079Z,5.25
2022-11-14T05:46:20.700Z,5.27
2022-11-14T05:49:07.305Z,5.29
2022-11-14T05:51:53.975Z,5.31
2022-11-14T05:54:40.521Z,5.32
2022-11-14T05:57:26.964Z,5.28
2022-11-14T06:00:14.296Z,5.25
2022-11-14T06:03:00.699Z,5.27
2022-11-14T06:05:47.352Z,5.28
2022-11-14T06:08:35.024Z,5.30
2022-11-14T06:11:21.778Z,5.35
2022-11-14T06:14:10.921Z,5.43
2022-11-14T06:17:28.167Z,5.49
2022-11-14T06:20:15.716Z,5.57
2022-11-14T06:23:02.450Z,5.63
2022-11-14T06:25:49.096Z,5.71
2022-11-14T06:28:35.693Z,5.77
2022-11-14T06:31:23.527Z,5.83
2022-11-14T06:34:13.002Z,5.90
2022-11-14T06:36:59.709Z,5.93
2022-11-14T06:39:46.630Z,5.96
2022-11-14T06:42:33.534Z,6.02
2022-11-14T06:45:19.900Z,6.07
2022-11-14T06:48:07.100Z,6.11
2022-11-14T06:50:54.919Z,6.17
2022-11-14T06:53:42.331Z,6.25
2022-11-14T06:56:29.079Z,6.32
2022-11-14T06:59:16.030Z,6.39
2022-11-14T07:02:03.079Z,6.49
2022-11-14T07:04:49.380Z,6.61
2022-11-14T07:07:36.169Z,6.76
2022-11-14T07:10:22.798Z,6.93
2022-11-14T07:13:14.271Z,7.05
2022-11-14T07:16:00.954Z,7.13
2022-11-14T07:18:47.853Z,7.19
2022-11-14T07:21:35.597Z,7.24
2022-11-14T07:24:22.243Z,7.28
2022-11-14T07:27:11.061Z,7.31
2022-11-14T07:29:57.364Z,7.32
2022-11-14T07:32:43.657Z,7.33
2022-11-14T07:35:30.215Z,7.35
2022-11-14T07:38:16.952Z,7.38
2022-11-14T07:41:12.385Z,7.42
2022-11-14T07:43:58.924Z,7.46
2022-11-14T07:46:45.480Z,7.51
2022-11-14T07:49:31.740Z,7.58
2022-11-14T07:52:18.276Z,7.65
2022-11-14T07:55:05.028Z,7.73
2022-11-14T07:57:55.052Z,7.83
2022-11-14T08:00:41.516Z,7.95
2022-11-14T08:03:28.843Z,8.05
2022-11-14T08:06:17.043Z,8.12
2022-11-14T08:09:03.557Z,8.20
2022-11-14T08:11:50.168Z,8.27
2022-11-14T08:14:36.644Z,8.34
2022-11-14T08:17:23.616Z,8.41
2022-11-14T08:20:10.517Z,8.46
2022-11-14T08:23:05.238Z,8.50
2022-11-14T08:25:51.833Z,8.54
2022-11-14T08:28:38.147Z,8.59
2022-11-14T08:31:25.296Z,8.63
2022-11-14T08:34:11.937Z,8.68
2022-11-14T08:36:59.174Z,8.73
2022-11-14T08:39:45.386Z,8.77
2022-11-14T08:42:31.880Z,8.81
2022-11-14T08:45:18.220Z,8.85
2022-11-14T08:48:05.873Z,8.89
2022-11-14T08:50:52.238Z,8.94
2022-11-14T08:53:38.920Z,9.01
2022-11-14T08:56:25.593Z,9.09
2022-11-14T08:59:12.239Z,9.18
2022-11-14T09:01:58.977Z,9.26
2022-11-14T09:04:45.626Z,9.32
2022-11-14T09:07:32.969Z,9.39
2022-11-14T09:10:19.772Z,9.48
2022-11-14T09:13:06.506Z,9.56
2022-11-14T09:15:53.169Z,9.64
2022-11-14T09:18:39.806Z,9.70
2022-11-14T09:21:26.556Z,9.73
2022-11-14T09:24:12.811Z,9.78
2022-11-14T09:26:59.401Z,9.81
2022-11-14T09:29:46.050Z,9.85
2022-11-14T09:32:32.716Z,9.88
2022-11-14T09:35:18.970Z,9.91
2022-11-14T09:38:08.559Z,9.95
2022-11-14T09:41:23.777Z,9.99
2022-11-14T09:44:10.329Z,10.09
2022-11-14T09:47:04.920Z,10.17
2022-11-14T09:49:56.034Z,10.23
2022-11-14T09:53:10.660Z,10.29
2022-11-14T09:55:58.583Z,10.33
2022-11-14T09:58:44.941Z,10.39
2022-11-14T10:01:40.365Z,10.46
2022-11-14T10:04:45.631Z,10.51
2022-11-14T10:07:38.149Z,10.60
2022-11-14T10:10:38.991Z,10.72
2022-11-14T10:13:40.808Z,10.81
2022-11-14T10:16:45.508Z,10.91
2022-11-14T10:19:42.577Z,11.03
2022-11-14T10:23:01.314Z,11.12
2022-11-14T10:26:14.665Z,11.20
2022-11-14T10:29:00.823Z,11.29
2022-11-14T10:32:06.367Z,11.35
2022-11-14T10:35:02.413Z,11.39
2022-11-14T10:37:51.884Z,11.39
2022-11-14T10:40:45.801Z,11.39
2022-11-14T10:43:32.149Z,11.39
2022-11-14T10:46:28.673Z,11.41
2022-11-14T10:49:23.818Z,11.41
2022-11-14T10:52:15.830Z,11.42
2022-11-14T10:55:13.213Z,11.41
2022-11-14T10:57:59.547Z,11.40
2022-11-14T11:00:46.111Z,11.42
2022-11-14T11:03:43.861Z,11.44
2022-11-14T11:06:30.421Z,11.47
2022-11-14T11:09:46.979Z,11.51
2022-11-14T11:12:53.838Z,11.55
2022-11-14T11:15:42.535Z,11.60
2022-11-14T11:18:30.723Z,11.65
2022-11-14T11:21:23.040Z,11.70
2022-11-14T11:24:10.112Z,11.75
2022-11-14T11:27:24.233Z,11.79
2022-11-14T11:30:23.477Z,11.82
2022-11-14T11:33:22.916Z,11.83
2022-11-14T11:36:17.780Z,11.83
2022-11-14T11:39:04.346Z,11.82
2022-11-14T11:42:11.049Z,11.80
2022-11-14T11:45:02.292Z,11.76
2022-11-14T11:48:04.089Z,11.75
2022-11-14T11:50:50.735Z,11.75
2022-11-14T11:53:41.277Z,11.74
2022-11-14T11:56:31.669Z,11.74
2022-11-14T11:59:37.890Z,11.75
2022-11-14T12:02:28.344Z,11.77
2022-11-14T12:05:18.107Z,11.80
2022-11-14T12:08:12.242Z,11.83
2022-11-14T12:11:04.240Z,11.83
2022-11-14T12:13:56.614Z,11.88
2022-11-14T12:16:55.618Z,11.94
2022-11-14T12:20:05.549Z,11.99
2022-11-14T12:23:25.170Z,12.06
2022-11-14T12:26:20.393Z,12.14
2022-11-14T12:29:25.814Z,12.18
2022-11-14T12:32:18.204Z,12.21
2022-11-14T12:35:10.174Z,12.24
2022-11-14T12:37:59.995Z,12.24
2022-11-14T12:40:54.114Z,12.22
2022-11-14T12:43:43.368Z,12.24
2022-11-14T12:47:05.093Z,12.23
2022-11-14T12:49:54.546Z,12.26
2022-11-14T12:52:41.165Z,12.30
2022-11-14T12:55:30.541Z,12.34
2022-11-14T12:58:22.363Z,12.36
2022-11-14T13:01:14.810Z,12.37
2022-11-14T13:04:16.144Z,12.40
2022-11-14T13:07:33.857Z,12.41
2022-11-14T13:10:50.580Z,12.42
2022-11-14T13:14:19.331Z,12.45
2022-11-14T13:17:36.869Z,12.46
2022-11-14T13:20:47.544Z,12.47
2022-11-14T13:23:56.018Z,12.49
2022-11-14T13:26:50.501Z,12.49
2022-11-14T13:29:39.925Z,12.50
2022-11-14T13:32:41.418Z,12.52
2022-11-14T13:35:44.525Z,12.52
2022-11-14T13:38:59.574Z,12.53
2022-11-14T13:42:30.724Z,12.56
2022-11-14T13:45:35.691Z,12.53
2022-11-14T13:48:47.725Z,12.50
2022-11-14T13:51:43.295Z,12.50
2022-11-14T13:54:30.760Z,12.48
2022-11-14T13:57:26.468Z,12.44
2022-11-14T14:00:20.718Z,12.42
2022-11-14T14:03:35.544Z,12.39
2022-11-14T14:06:30.910Z,12.37
2022-11-14T14:09:38.934Z,12.32
2022-11-14T14:12:51.347Z,12.26
2022-11-14T14:15:50.279Z,12.23
2022-11-14T14:18:49.662Z,12.19
2022-11-14T14:22:03.784Z,12.17
2022-11-14T14:24:57.429Z,12.10
2022-11-14T14:27:55.794Z,12.05
2022-11-14T14:31:01.477Z,12.00
2022-11-14T14:33:51.447Z,11.99
2022-11-14T14:36:49.892Z,11.93
2022-11-14T14:39:36.489Z,11.87
2022-11-14T14:42:23.074Z,11.80
2022-11-14T14:45:18.409Z,11.72
2022-11-14T14:48:23.919Z,11.66
2022-11-14T14:51:14.625Z,11.60
2022-11-14T14:54:02.065Z,11.52
2022-11-14T14:57:03.409Z,11.45
2022-11-14T15:00:08.104Z,11.38
2022-11-14T15:02:56.168Z,11.30
2022-11-14T15:05:42.581Z,11.24
2022-11-14T15:08:31.979Z,11.19
2022-11-14T15:11:18.905Z,11.14
2022-11-14T15:14:06.579Z,11.10
2022-11-14T15:16:54.142Z,11.05
2022-11-14T15:19:44.007Z,11.01
2022-11-14T15:22:30.359Z,10.98
2022-11-14T15:25:20.423Z,10.95
2022-11-14T15:28:19.917Z,10.91
2022-11-14T15:31:07.446Z,10.85
2022-11-14T15:34:21.972Z,10.82
2022-11-14T15:37:14.485Z,10.76
2022-11-14T15:40:19.704Z,10.69
2022-11-14T15:43:43.035Z,10.63
2022-11-14T15:46:29.266Z,10.62
2022-11-14T15:49:25.549Z,10.59
2022-11-14T15:52:40.933Z,10.56
2022-11-14T15:55:27.816Z,10.52
2022-11-14T15:58:27.613Z,10.46
2022-11-14T16:01:22.950Z,10.41
2022-11-14T16:04:18.148Z,10.34
2022-11-14T16:07:05.838Z,10.28
2022-11-14T16:09:52.298Z,10.23
2022-11-14T16:12:38.999Z,10.17
2022-11-14T16:15:25.532Z,10.12
2022-11-14T16:18:12.539Z,10.08
2022-11-14T16:20:59.661Z,10.05
2022-11-14T16:23:46.281Z,10.00
2022-11-14T16:26:33.101Z,9.98
2022-11-14T16:29:20.017Z,9.95
2022-11-14T16:32:09.202Z,9.91
2022-11-14T16:34:55.891Z,9.86
2022-11-14T16:37:42.953Z,9.81
2022-11-14T16:40:29.661Z,9.79
2022-11-14T16:43:16.128Z,9.74
2022-11-14T16:46:06.804Z,9.69
2022-11-14T16:48:55.120Z,9.66
2022-11-14T16:51:48.145Z,9.65
2022-11-14T16:54:35.893Z,9.64
2022-11-14T16:57:23.906Z,9.65
2022-11-14T17:00:12.827Z,9.63
2022-11-14T17:02:59.345Z,9.60
2022-11-14T17:05:48.006Z,9.54
2022-11-14T17:08:34.659Z,9.47
2022-11-14T17:11:21.611Z,9.37
2022-11-14T17:14:08.170Z,9.29
2022-11-14T17:16:55.159Z,9.22
2022-11-14T17:19:46.178Z,9.17
2022-11-14T17:22:32.895Z,9.11
2022-11-14T17:25:19.843Z,9.08
2022-11-14T17:28:06.223Z,9.03
2022-11-14T17:30:52.396Z,8.94
2022-11-14T17:33:39.182Z,8.87
2022-11-14T17:36:35.681Z,8.85
2022-11-14T17:39:22.908Z,8.83
2022-11-14T17:42:09.653Z,8.77
2022-11-14T17:45:00.899Z,8.68
2022-11-14T17:47:47.374Z,8.62
2022-11-14T17:50:37.598Z,8.58
2022-11-14T17:53:24.575Z,8.53
2022-11-14T17:56:23.197Z,8.51
2022-11-14T17:59:09.647Z,8.48
2022-11-14T18:01:59.910Z,8.44
2022-11-14T18:04:47.201Z,8.41
2022-11-14T18:07:33.930Z,8.35
2022-11-14T18:10:20.432Z,8.27
2022-11-14T18:13:06.756Z,8.22
2022-11-14T18:15:53.536Z,8.19
2022-11-14T18:18:40.568Z,8.18
2022-11-14T18:21:27.426Z,8.19
2022-11-14T18:24:14.989Z,8.19
2022-11-14T18:27:01.574Z,8.18
2022-11-14T18:29:48.728Z,8.13
2022-11-14T18:32:35.327Z,8.10
2022-11-14T18:35:22.079Z,8.10
2022-11-14T18:38:08.797Z,8.01
2022-11-14T18:40:57.570Z,7.92
2022-11-14T18:43:45.608Z,7.83
2022-11-14T18:46:37.088Z,7.80
2022-11-14T18:49:25.310Z,7.81
2022-11-14T18:52:17.218Z,7.80
2022-11-14T18:55:05.689Z,7.77
2022-11-14T18:57:52.696Z,7.76
2022-11-14T19:00:39.473Z,7.76
2022-11-14T19:03:26.142Z,7.74
2022-11-14T19:06:14.012Z,7.63
2022-11-14T19:09:11.440Z,7.59
2022-11-14T19:12:17.185Z,7.50
2022-11-14T19:15:03.984Z,7.42
2022-11-14T19:17:50.474Z,7.39
2022-11-14T19:20:37.255Z,7.37
2022-11-14T19:23:24.078Z,7.35
2022-11-14T19:26:11.765Z,7.35
2022-11-14T19:29:04.159Z,7.34
2022-11-14T19:31:51.009Z,7.34
2022-11-14T19:34:37.615Z,7.34
2022-11-14T19:37:23.794Z,7.33
2022-11-14T19:40:11.140Z,7.26
2022-11-14T19:43:01.880Z,7.20
2022-11-14T19:45:48.820Z,7.17
2022-11-14T19:48:36.914Z,7.12
2022-11-14T19:51:24.244Z,7.09
2022-11-14T19:54:11.502Z,7.06
2022-11-14T19:56:57.695Z,7.07
2022-11-14T19:59:44.331Z,7.03
2022-11-14T20:02:30.962Z,6.98
2022-11-14T20:05:18.293Z,6.96
2022-11-14T20:08:05.754Z,6.95
2022-11-14T20:11:03.404Z,6.96
2022-11-14T20:13:50.048Z,6.95
2022-11-14T20:16:37.595Z,6.94
2022-11-14T20:19:24.237Z,6.93
2022-11-14T20:22:11.256Z,6.92
2022-11-14T20:24:57.837Z,6.94
2022-11-14T20:27:44.280Z,6.90
2022-11-14T20:30:31.146Z,6.88
2022-11-14T20:33:17.829Z,6.90
2022-11-14T20:36:07.444Z,6.90
2022-11-14T20:38:54.496Z,6.86
2022-11-14T20:41:41.196Z,6.82
2022-11-14T20:44:27.985Z,6.78
2022-11-14T20:47:14.820Z,6.79
2022-11-14T20:50:01.291Z,6.85
2022-11-14T20:52:48.552Z,6.90
2022-11-14T20:55:34.615Z,6.89
2022-11-14T20:58:21.340Z,6.86
2022-11-14T21:01:08.770Z,6.85
2022-11-14T21:03:55.580Z,6.87
2022-11-14T21:06:42.217Z,6.81
2022-11-14T21:09:28.639Z,6.77
2022-11-14T21:12:15.490Z,6.75
2022-11-14T21:15:02.405Z,6.69
2022-11-14T21:17:49.158Z,6.66
2022-11-14T21:20:35.826Z,6.67
2022-11-14T21:23:22.647Z,6.66
2022-11-14T21:26:17.053Z,6.70
2022-11-14T21:29:07.463Z,6.74
2022-11-14T21:31:55.865Z,6.75
2022-11-14T21:34:42.574Z,6.76
2022-11-14T21:37:29.039Z,6.73
2022-11-14T21:40:15.965Z,6.72
2022-11-14T21:43:02.655Z,6.72
2022-11-14T21:45:58.802Z,6.72
2022-11-14T21:48:47.203Z,6.76
2022-11-14T21:51:33.406Z,6.80
2022-11-14T21:54:20.217Z,6.87
2022-11-14T21:57:10.256Z,6.90
2022-11-14T21:59:57.366Z,6.96
2022-11-14T22:03:03.034Z,6.98
2022-11-14T22:05:55.747Z,6.98
2022-11-14T22:08:42.617Z,6.96
2022-11-14T22:11:29.185Z,6.91
2022-11-14T22:14:15.881Z,6.87
2022-11-14T22:17:02.408Z,6.82
2022-11-14T22:19:48.779Z,6.77
2022-11-14T22:22:35.728Z,6.79
2022-11-14T22:25:22.490Z,6.79
2022-11-14T22:28:09.146Z,6.82
2022-11-14T22:31:06.392Z,6.86
2022-11-14T22:33:54.231Z,6.84
2022-11-14T22:36:40.936Z,6.80
2022-11-14T22:39:27.543Z,6.72
2022-11-14T22:42:14.302Z,6.62
2022-11-14T22:45:01.374Z,6.57
2022-11-14T22:47:47.935Z,6.53
2022-11-14T22:50:34.403Z,6.49
2022-11-14T22:53:21.007Z,6.46
2022-11-14T22:56:10.284Z,6.47
2022-11-14T22:58:58.901Z,6.44
2022-11-14T23:01:45.298Z,6.39
2022-11-14T23:04:31.908Z,6.43
2022-11-14T23:07:18.338Z,6.40
2022-11-14T23:10:05.735Z,6.33
2022-11-14T23:12:52.125Z,6.30
2022-11-14T23:15:39.455Z,6.28
2022-11-14T23:18:26.468Z,6.26
2022-11-14T23:21:19.229Z,6.24
2022-11-14T23:24:11.771Z,6.21
2022-11-14T23:26:58.675Z,6.20
2022-11-14T23:29:45.085Z,6.19
2022-11-14T23:32:31.701Z,6.14
2022-11-14T23:35:18.181Z,6.08
2022-11-14T23:38:07.656Z,6.09
2022-11-14T23:41:00.027Z,6.13
2022-11-14T23:43:47.582Z,6.05
2022-11-14T23:46:34.130Z,6.02
2022-11-14T23:49:21.043Z,6.03
2022-11-14T23:52:07.852Z,6.04
2022-11-14T23:54:54.250Z,6.03
2022-11-14T23:57:41.165Z,5.99
